createdAt,value
2017-12-22T00:06:14.024Z,7.80
2017-12-22T00:08:48.639Z,7.80
2017-12-22T00:11:24.615Z,7.80
2017-12-22T00:13:59.311Z,7.80
2017-12-22T00:16:34.581Z,7.80
2017-12-22T00:19:09.808Z,7.80
2017-12-22T00:21:45.033Z,7.80
2017-12-22T00:24:19.749Z,7.80
2017-12-22T00:26:54.642Z,7.80
2017-12-22T00:29:29.317Z,7.80
2017-12-22T00:32:03.925Z,7.80
2017-12-22T00:34:38.907Z,7.80
2017-12-22T00:37:13.414Z,7.80
2017-12-22T00:39:48.658Z,7.80
2017-12-22T00:42:23.417Z,7.80
2017-12-22T00:44:58.366Z,7.80
2017-12-22T00:47:34.500Z,7.80
2017-12-22T00:50:09.288Z,7.80
2017-12-22T00:52:44.448Z,7.80
2017-12-22T00:55:19.842Z,7.80
2017-12-22T00:57:55.143Z,7.80
2017-12-22T01:00:30.282Z,7.80
2017-12-22T01:03:05.132Z,7.80
2017-12-22T01:05:40.120Z,7.80
2017-12-22T01:08:14.549Z,7.80
2017-12-22T01:10:49.623Z,7.80
2017-12-22T01:13:25.464Z,7.80
2017-12-22T01:16:06.316Z,7.80
2017-12-22T01:18:46.803Z,7.80
2017-12-22T01:21:22.062Z,7.80
2017-12-22T01:41:57.168Z,7.90
2017-12-22T01:44:31.974Z,7.80
2017-12-22T01:47:06.650Z,7.90
2017-12-22T01:49:41.340Z,7.90
2017-12-22T01:52:16.292Z,7.80
2017-12-22T01:54:50.812Z,7.80
2017-12-22T01:57:25.730Z,7.80
2017-12-22T02:00:00.586Z,7.80
2017-12-22T02:02:41.300Z,7.80
2017-12-22T02:05:15.888Z,7.80
2017-12-22T02:07:50.784Z,7.80
2017-12-22T02:10:26.011Z,7.80
2017-12-22T02:13:01.263Z,7.80
2017-12-22T02:15:36.945Z,7.90
2017-12-22T02:18:11.404Z,7.80
2017-12-22T02:20:47.254Z,7.90
2017-12-22T02:23:22.286Z,7.80
2017-12-22T02:25:57.625Z,7.90
2017-12-22T02:28:32.099Z,7.90
2017-12-22T02:31:07.122Z,7.90
2017-12-22T02:33:41.944Z,7.90
2017-12-22T02:36:16.555Z,7.90
2017-12-22T02:38:51.438Z,7.90
2017-12-22T02:41:26.393Z,7.90
2017-12-22T02:44:00.835Z,7.90
2017-12-22T02:46:35.207Z,7.90
2017-12-22T02:49:10.208Z,7.90
2017-12-22T02:51:45.442Z,7.90
2017-12-22T02:54:20.455Z,7.90
2017-12-22T02:56:55.479Z,8.00
2017-12-22T02:59:31.021Z,8.00
2017-12-22T03:02:06.893Z,8.00
2017-12-22T03:04:48.269Z,8.00
2017-12-22T03:07:22.867Z,8.00
2017-12-22T03:09:57.644Z,8.00
2017-12-22T03:12:32.484Z,8.00
2017-12-22T03:15:07.764Z,8.00
2017-12-22T03:17:42.609Z,8.00
2017-12-22T03:20:17.617Z,8.00
2017-12-22T03:22:52.739Z,7.90
2017-12-22T03:28:27.686Z,7.90
2017-12-22T03:31:02.624Z,7.90
2017-12-22T03:33:37.448Z,7.90
2017-12-22T03:36:11.765Z,7.90
2017-12-22T03:38:46.312Z,7.80
2017-12-22T03:41:21.166Z,7.90
2017-12-22T03:43:56.232Z,7.80
2017-12-22T03:49:31.627Z,7.90
2017-12-22T03:52:06.227Z,7.90
2017-12-22T03:54:41.137Z,7.80
2017-12-22T03:57:15.832Z,7.80
2017-12-22T03:59:50.454Z,7.80
2017-12-22T04:02:25.207Z,7.90
2017-12-22T04:05:00.505Z,7.80
2017-12-22T04:10:57.124Z,7.90
2017-12-22T04:13:31.505Z,7.90
2017-12-22T04:16:06.330Z,8.00
2017-12-22T04:18:41.486Z,8.00
2017-12-22T04:21:16.462Z,8.10
2017-12-22T04:23:50.970Z,8.10
2017-12-22T04:26:25.534Z,8.20
2017-12-22T04:29:00.660Z,8.30
2017-12-22T04:31:35.858Z,8.30
2017-12-22T04:34:10.486Z,8.40
2017-12-22T04:36:45.637Z,8.50
2017-12-22T04:39:20.226Z,8.50
2017-12-22T04:41:54.876Z,8.50
2017-12-22T04:44:29.600Z,8.50
2017-12-22T04:47:04.542Z,8.50
2017-12-22T05:13:39.229Z,8.60
2017-12-22T05:16:14.117Z,8.60
2017-12-22T05:18:48.968Z,8.60
2017-12-22T05:21:23.747Z,8.60
2017-12-22T05:23:58.681Z,8.60
2017-12-22T05:26:33.513Z,8.60
2017-12-22T05:29:08.372Z,8.60
2017-12-22T05:31:43.327Z,8.60
2017-12-22T05:34:18.303Z,8.60
2017-12-22T05:36:53.078Z,8.60
2017-12-22T05:39:29.155Z,8.60
2017-12-22T05:42:04.356Z,8.50
2017-12-22T05:44:39.523Z,8.50
2017-12-22T05:47:14.915Z,8.50
2017-12-22T05:49:49.368Z,8.50
2017-12-22T06:07:22.704Z,8.50
2017-12-22T06:09:57.396Z,8.40
2017-12-22T06:12:32.020Z,8.50
2017-12-22T06:15:06.979Z,8.40
2017-12-22T06:17:41.876Z,8.40
2017-12-22T06:20:16.638Z,8.40
2017-12-22T06:22:51.568Z,8.40
2017-12-22T06:34:46.299Z,8.40
2017-12-22T06:37:21.583Z,8.40
2017-12-22T06:39:56.554Z,8.40
2017-12-22T06:42:31.604Z,8.30
2017-12-22T06:45:06.782Z,8.40
2017-12-22T06:47:41.711Z,8.40
2017-12-22T06:50:16.598Z,8.40
2017-12-22T06:52:51.810Z,8.40
2017-12-22T07:07:27.202Z,8.40
2017-12-22T07:10:01.844Z,8.40
2017-12-22T07:12:37.622Z,8.40
2017-12-22T07:15:12.926Z,8.30
2017-12-22T07:17:48.036Z,8.30
2017-12-22T07:20:22.839Z,8.40
2017-12-22T07:22:57.670Z,8.40
2017-12-22T07:25:32.567Z,8.30
2017-12-22T07:37:09.076Z,8.30
2017-12-22T07:39:44.083Z,8.30
2017-12-22T07:42:18.973Z,8.20
2017-12-22T07:44:54.294Z,8.30
2017-12-22T07:47:28.399Z,8.30
2017-12-22T07:50:03.478Z,8.20
2017-12-22T07:52:38.095Z,8.20
2017-12-22T07:55:12.849Z,8.20
2017-12-22T08:03:47.831Z,8.20
2017-12-22T08:06:23.035Z,8.20
2017-12-22T08:08:58.262Z,8.20
2017-12-22T08:11:33.367Z,8.20
2017-12-22T08:14:09.009Z,8.30
2017-12-22T08:16:44.939Z,8.30
2017-12-22T08:19:20.016Z,8.20
2017-12-22T08:21:55.060Z,8.30
2017-12-22T08:33:29.986Z,8.30
2017-12-22T08:36:05.170Z,8.30
2017-12-22T08:38:41.070Z,8.40
2017-12-22T08:41:16.201Z,8.40
2017-12-22T08:43:51.382Z,8.40
2017-12-22T08:46:25.872Z,8.40
2017-12-22T08:49:00.832Z,8.50
2017-12-22T09:00:58.214Z,8.50
2017-12-22T09:03:33.434Z,8.50
2017-12-22T09:06:08.763Z,8.50
2017-12-22T09:08:52.589Z,8.60
2017-12-22T09:11:27.610Z,8.70
2017-12-22T09:14:02.788Z,8.70
2017-12-22T09:16:38.083Z,8.70
2017-12-22T09:19:14.023Z,8.70
2017-12-22T09:21:54.858Z,8.70
2017-12-22T09:24:29.377Z,8.80
2017-12-22T09:27:04.998Z,8.90
2017-12-22T09:29:39.485Z,8.90
2017-12-22T09:32:14.256Z,9.00
2017-12-22T09:34:49.487Z,8.90
2017-12-22T09:37:23.915Z,8.90
2017-12-22T09:39:59.659Z,8.80
2017-12-22T09:42:34.668Z,8.80
2017-12-22T09:45:10.229Z,8.70
2017-12-22T09:47:45.492Z,8.70
2017-12-22T09:50:20.522Z,8.70
2017-12-22T09:52:54.946Z,8.70
2017-12-22T09:55:30.020Z,8.70
2017-12-22T09:58:04.275Z,8.60
2017-12-22T10:00:39.228Z,8.60
2017-12-22T10:06:33.956Z,8.60
2017-12-22T10:09:09.434Z,8.70
2017-12-22T10:11:44.174Z,8.70
2017-12-22T10:14:19.820Z,8.70
2017-12-22T10:16:54.755Z,8.60
2017-12-22T10:19:29.741Z,8.70
2017-12-22T10:22:05.004Z,8.70
2017-12-22T10:24:40.267Z,8.70
2017-12-22T10:30:38.376Z,8.70
2017-12-22T10:33:13.568Z,8.70
2017-12-22T10:35:47.945Z,8.70
2017-12-22T10:38:22.948Z,8.80
2017-12-22T10:40:57.866Z,8.70
2017-12-22T10:43:32.730Z,8.80
2017-12-22T10:46:07.757Z,8.80
2017-12-22T10:48:42.915Z,8.80
2017-12-22T10:51:18.161Z,8.80
2017-12-22T10:53:53.050Z,8.90
2017-12-22T10:56:27.845Z,8.90
2017-12-22T10:59:02.508Z,9.00
2017-12-22T11:01:37.388Z,9.00
2017-12-22T11:04:12.758Z,9.00
2017-12-22T11:06:47.839Z,9.00
2017-12-22T11:09:22.446Z,9.10
2017-12-22T11:32:58.957Z,9.40
2017-12-22T11:35:33.666Z,9.50
2017-12-22T11:38:08.587Z,9.60
2017-12-22T11:40:43.623Z,9.60
2017-12-22T11:43:18.576Z,9.50
2017-12-22T11:45:53.775Z,9.50
2017-12-22T11:48:28.438Z,9.60
2017-12-22T11:51:03.325Z,9.50
2017-12-22T11:59:40.629Z,9.50
2017-12-22T12:02:15.057Z,9.50
2017-12-22T12:04:49.753Z,9.50
2017-12-22T12:07:24.578Z,9.60
2017-12-22T12:09:59.392Z,9.60
2017-12-22T12:12:34.329Z,9.60
2017-12-22T12:15:09.961Z,9.70
2017-12-22T12:17:45.887Z,9.60
2017-12-22T12:20:26.657Z,9.60
2017-12-22T12:23:01.107Z,9.70
2017-12-22T12:25:35.930Z,9.80
2017-12-22T12:28:10.856Z,9.70
2017-12-22T12:30:45.813Z,9.70
2017-12-22T12:33:20.805Z,9.80
2017-12-22T12:35:55.231Z,9.80
2017-12-22T12:38:30.290Z,9.70
2017-12-22T12:44:04.422Z,9.70
2017-12-22T12:46:39.160Z,9.70
2017-12-22T12:49:14.515Z,9.70
2017-12-22T12:51:49.650Z,9.70
2017-12-22T12:54:24.229Z,9.70
2017-12-22T12:56:59.138Z,9.80
2017-12-22T12:59:33.873Z,9.80
2017-12-22T13:05:29.442Z,9.80
2017-12-22T13:08:03.825Z,9.90
2017-12-22T13:10:38.572Z,9.80
2017-12-22T13:13:13.581Z,9.80
2017-12-22T13:15:48.287Z,9.80
2017-12-22T13:18:23.024Z,9.80
2017-12-22T13:20:57.935Z,9.70
2017-12-22T13:23:32.729Z,9.80
2017-12-22T13:26:07.402Z,9.80
2017-12-22T13:28:42.455Z,9.70
2017-12-22T13:31:18.115Z,9.80
2017-12-22T13:33:53.062Z,9.80
2017-12-22T13:36:27.774Z,9.80
2017-12-22T13:39:02.185Z,9.70
2017-12-22T13:41:37.128Z,9.70
2017-12-22T13:47:10.945Z,9.60
2017-12-22T13:49:46.452Z,9.70
2017-12-22T13:52:21.630Z,9.70
2017-12-22T13:54:56.481Z,9.60
2017-12-22T13:57:31.366Z,9.60
2017-12-22T14:00:06.337Z,9.70
2017-12-22T14:02:41.296Z,9.70
2017-12-22T14:08:15.890Z,9.70
2017-12-22T14:10:50.945Z,9.80
2017-12-22T14:13:25.966Z,9.80
2017-12-22T14:16:00.945Z,9.70
2017-12-22T14:18:35.726Z,9.80
2017-12-22T14:21:10.663Z,9.80
2017-12-22T14:23:45.410Z,9.80
2017-12-22T14:26:21.081Z,9.80
2017-12-22T14:28:55.864Z,9.80
2017-12-22T14:31:30.802Z,9.80
2017-12-22T14:34:06.131Z,9.70
2017-12-22T14:36:41.084Z,9.70
2017-12-22T14:39:16.249Z,9.60
2017-12-22T14:41:51.104Z,9.60
2017-12-22T14:44:25.988Z,9.60
2017-12-22T14:59:01.028Z,9.40
2017-12-22T15:01:35.817Z,9.30
2017-12-22T15:04:10.711Z,9.20
2017-12-22T15:06:45.703Z,9.20
2017-12-22T15:09:20.603Z,9.10
2017-12-22T15:11:55.569Z,9.00
2017-12-22T15:14:30.714Z,8.90
2017-12-22T15:17:06.002Z,8.80
2017-12-22T15:35:02.461Z,7.90
2017-12-22T15:37:37.680Z,7.90
2017-12-22T15:40:13.272Z,7.50
2017-12-22T15:42:48.464Z,7.50
2017-12-22T15:45:23.393Z,7.50
2017-12-22T15:47:58.148Z,7.30
2017-12-22T15:50:32.619Z,7.20
2017-12-22T15:53:07.820Z,7.00
2017-12-22T15:58:43.427Z,6.90
2017-12-22T16:01:18.444Z,7.10
2017-12-22T16:03:53.781Z,7.20
2017-12-22T16:06:29.415Z,7.20
2017-12-22T16:09:03.390Z,7.20
2017-12-22T16:11:39.490Z,7.30
2017-12-22T16:14:14.123Z,7.30
2017-12-22T16:16:48.589Z,7.30
2017-12-22T16:19:23.169Z,7.30
2017-12-22T16:21:58.208Z,7.40
2017-12-22T16:24:33.398Z,7.40
2017-12-22T16:27:08.663Z,7.40
2017-12-22T16:29:43.536Z,7.30
2017-12-22T16:32:19.243Z,7.40
2017-12-22T16:34:53.937Z,7.40
2017-12-22T16:37:28.424Z,7.50
2017-12-22T16:40:03.368Z,7.50
2017-12-22T16:42:39.152Z,7.70
2017-12-22T16:45:13.565Z,7.70
2017-12-22T16:47:48.220Z,7.80
2017-12-22T16:50:23.185Z,7.90
2017-12-22T16:52:57.496Z,7.90
2017-12-22T16:55:32.525Z,8.00
2017-12-22T17:01:06.982Z,8.00
2017-12-22T17:03:42.295Z,8.10
2017-12-22T17:06:17.065Z,8.10
2017-12-22T17:08:51.750Z,8.10
2017-12-22T17:11:26.709Z,8.10
2017-12-22T17:14:01.506Z,8.20
2017-12-22T17:16:36.463Z,8.20
2017-12-22T17:19:11.324Z,8.20
2017-12-22T17:21:46.031Z,8.30
2017-12-22T17:24:20.710Z,8.40
2017-12-22T17:26:55.757Z,8.40
2017-12-22T17:29:30.615Z,8.30
2017-12-22T17:32:05.807Z,8.30
2017-12-22T17:34:40.929Z,8.30
2017-12-22T17:37:15.947Z,8.30
2017-12-22T17:39:57.051Z,8.30
2017-12-22T17:42:31.625Z,8.20
2017-12-22T17:45:06.952Z,8.20
2017-12-22T17:47:41.643Z,8.20
2017-12-22T17:50:16.795Z,8.10
2017-12-22T17:52:51.715Z,8.10
2017-12-22T17:55:26.744Z,8.10
2017-12-22T17:58:01.384Z,8.10
2017-12-22T18:03:35.685Z,8.00
2017-12-22T18:06:11.170Z,8.00
2017-12-22T18:08:45.298Z,7.90
2017-12-22T18:11:20.910Z,7.90
2017-12-22T18:13:55.937Z,7.90
2017-12-22T18:16:30.334Z,7.90
2017-12-22T18:19:05.551Z,7.90
2017-12-22T18:21:40.103Z,7.90
2017-12-22T18:24:17.496Z,7.90
2017-12-22T18:26:52.449Z,8.00
2017-12-22T18:29:27.375Z,8.00
2017-12-22T18:32:01.836Z,8.00
2017-12-22T18:34:37.077Z,8.00
2017-12-22T18:37:12.204Z,8.00
2017-12-22T18:39:47.219Z,8.00
2017-12-22T19:03:30.377Z,7.90
2017-12-22T19:06:07.142Z,7.90
2017-12-22T19:08:42.143Z,7.80
2017-12-22T19:11:17.246Z,7.80
2017-12-22T19:13:51.980Z,7.80
2017-12-22T19:16:26.869Z,7.80
2017-12-22T19:19:01.705Z,7.80
2017-12-22T19:21:36.590Z,7.70
2017-12-22T19:42:12.148Z,7.60
2017-12-22T19:44:46.996Z,7.70
2017-12-22T19:47:21.801Z,7.70
2017-12-22T19:49:56.840Z,7.70
2017-12-22T19:52:32.502Z,7.60
2017-12-22T19:55:06.873Z,7.60
2017-12-22T19:57:42.933Z,7.60
2017-12-22T20:00:18.129Z,7.60
2017-12-22T20:11:59.559Z,7.60
2017-12-22T20:14:34.842Z,7.60
2017-12-22T20:17:09.755Z,7.60
2017-12-22T20:19:44.415Z,7.60
2017-12-22T20:22:19.420Z,7.60
2017-12-22T20:24:54.337Z,7.60
2017-12-22T20:27:30.215Z,7.60
2017-12-22T20:30:05.157Z,7.60
2017-12-22T20:35:39.594Z,7.60
2017-12-22T20:38:14.232Z,7.60
2017-12-22T20:40:49.128Z,7.60
2017-12-22T20:43:23.976Z,7.70
2017-12-22T20:45:58.776Z,7.70
2017-12-22T20:48:33.709Z,7.80
2017-12-22T20:51:08.520Z,7.90
2017-12-22T21:17:42.814Z,8.10
2017-12-22T21:20:17.726Z,8.10
2017-12-22T21:22:52.610Z,8.10
2017-12-22T21:25:27.705Z,8.10
2017-12-22T21:28:03.436Z,8.20
2017-12-22T21:30:38.710Z,8.10
2017-12-22T21:33:13.715Z,8.20
2017-12-22T21:35:48.774Z,8.20
2017-12-22T21:41:47.102Z,8.20
2017-12-22T21:44:21.613Z,8.20
2017-12-22T21:46:56.039Z,8.30
2017-12-22T21:49:30.618Z,8.30
2017-12-22T21:52:05.839Z,8.30
2017-12-22T21:54:40.690Z,8.30
2017-12-22T21:57:16.004Z,8.30
2017-12-22T21:59:50.444Z,8.30
2017-12-22T22:02:32.023Z,8.40
2017-12-22T22:05:06.563Z,8.30
2017-12-22T22:07:41.392Z,8.30
2017-12-22T22:10:16.221Z,8.40
2017-12-22T22:12:50.917Z,8.40
2017-12-22T22:15:25.905Z,8.40
2017-12-22T22:18:00.812Z,8.40
2017-12-22T22:20:35.938Z,8.40
2017-12-22T22:41:10.394Z,8.30
2017-12-22T22:43:45.080Z,8.30
2017-12-22T22:46:20.678Z,8.30
2017-12-22T22:48:55.163Z,8.30
2017-12-22T22:51:30.148Z,8.30
2017-12-22T22:54:05.002Z,8.20
2017-12-22T22:56:40.148Z,8.20
2017-12-22T22:59:15.108Z,8.20
2017-12-22T23:05:09.048Z,8.30
2017-12-22T23:07:44.306Z,8.20
2017-12-22T23:10:19.582Z,8.30
2017-12-22T23:12:54.169Z,8.20
2017-12-22T23:15:28.930Z,8.20
2017-12-22T23:18:03.996Z,8.20
2017-12-22T23:20:38.477Z,8.20
2017-12-22T23:23:13.744Z,8.30
2017-12-22T23:31:55.335Z,8.20
2017-12-22T23:34:30.282Z,8.30
2017-12-22T23:37:05.496Z,8.30
2017-12-22T23:39:41.473Z,8.30
2017-12-22T23:42:16.787Z,8.30
2017-12-22T23:44:51.854Z,8.30
2017-12-22T23:47:26.728Z,8.20
